Rock Springs, Arkansas
Current Conditions -  °F | °C
As of 4:53 PM on Tuesday 21 Oct 2014 (Local Time) from KLLQ Reporting Station
Clear Clear  
Wind Chill: 79°   Ceiling: Unl
Heat Index: 80°   Visibility: 10mi
Dew Point: 55°   Wind: 3mph
Humidity: 44%   Direction: 360°N
Pressure: 30.02"   Gusts: NA
Location:  33.6204°N, 91.9247°W
Report Text: KLLQ 212153Z AUTO 36003KT 10SM CLR 26/13 A3002 RMK AO2 SLP164 T02610128
Loading
Personal Weather Stations






























Interactive Weather Map
Tropical Storm Tracking
New forecast layout! Learn more

10-Day Weather Forecast

Advertisements
Track Severe Weather on mobile